Suncook, NH (03275)

1:34 PM EST on February 14, 2016 (GMT -0500)
Pembroke Hill | | Change Station
CLOSE
Current Station
Personal Weather Station
Location: Pembroke, NH
Elevation: 545 ft
Nearby Weather Stations

Elev 545 ft 43.17 °N, 71.45 °W | Updated 4 seconds ago

Clear
Clear
7.2 °F
Feels Like -3 °F
N
6.0
Wind Variable Wind from NW
Gusts 9.2 mph

Today
High -- | Low -- °F
--% Chance of Precip.
Yesterday
High -- | Low -- °F
Precip. -- in
Pressure 30.38 in
Visibility 10.0 miles
Clouds Clear
Windchill -3 °F
Dew Point -24 °F
Humidity 22%
Rainfall 0.00 in
Snow Depth Not available.
6:45 AM 5:14 PM
Waxing Crescent, 44% visible
METAR KCON 141751Z AUTO 30016KT 10SM CLR M16/M27 A3035 RMK AO2 SLP287 T11561272 11156 21250 58005
Pressure 30.38 in
Visibility 10.0 miles
Clouds Clear
Windchill -3 °F
Dew Point -24 °F
Humidity 22%
Rainfall 0.00 in
Snow Depth Not available.
6:45 AM 5:14 PM
Waxing Crescent, 44% visible
METAR KCON 141751Z AUTO 30016KT 10SM CLR M16/M27 A3035 RMK AO2 SLP287 T11561272 11156 21250 58005

10-Day Weather Forecast

Almanac

Astronomy

Feb. 14, 2016 Rise Set
Actual Time
Civil Twilight
Nautical Twilight
Astronomical Twilight
Moon
Length of Visible Light
Length of Day
Tomorrow will be .
, % of the Moon is Illuminated

Today's Extremes

State Highs State Lows

Community

WunderPhotos

Upload Photos

1,892,868 photos uploaded!

WunderBlog® & News

Nearby

Air Quality

  Air Quality AQ Index Pollutant
Not available.

Snow Depth

Station Depth Elevation

Earthquake Activity

City Distance Mag. Time & Date
Minimum magnitude displayed is 2.5.

Coastal Water Temperatures

Place Temperature

Stations

Nearby Weather Stations

Station Location Temp. Windchill Dew Point Humidity Wind Precip. Elev Updated Type
                   

Watches & Warnings

There are currently no watches in effect.